createdAt,value
2017-12-25T00:00:37.049Z,11.47
2017-12-25T00:03:04.902Z,10.00
2017-12-25T00:05:32.809Z,10.40
2017-12-25T00:08:00.708Z,10.47
2017-12-25T00:10:28.583Z,12.40
2017-12-25T00:12:56.450Z,12.37
2017-12-25T00:15:24.311Z,9.97
2017-12-25T00:17:53.252Z,10.87
2017-12-25T00:20:21.143Z,16.83
2017-12-25T00:22:48.984Z,11.40
2017-12-25T00:25:17.062Z,12.73
2017-12-25T00:27:44.943Z,11.67
2017-12-25T00:30:12.787Z,12.50
2017-12-25T00:32:40.631Z,10.67
2017-12-25T00:35:08.489Z,11.27
2017-12-25T00:37:36.345Z,11.03
2017-12-25T00:40:04.200Z,10.67
2017-12-25T00:42:32.110Z,11.37
2017-12-25T00:44:59.971Z,9.73
2017-12-25T00:47:27.823Z,9.57
2017-12-25T00:49:55.717Z,10.80
2017-12-25T00:52:23.625Z,10.50
2017-12-25T00:54:51.474Z,9.63
2017-12-25T00:57:19.339Z,11.20
2017-12-25T00:59:47.189Z,12.70
2017-12-25T01:02:15.027Z,9.53
2017-12-25T01:04:42.929Z,9.07
2017-12-25T01:07:10.787Z,9.87
2017-12-25T01:09:38.714Z,9.47
2017-12-25T01:12:06.657Z,10.90
2017-12-25T01:14:34.531Z,9.23
2017-12-25T01:17:02.417Z,10.30
2017-12-25T01:19:30.334Z,9.77
2017-12-25T01:21:58.196Z,12.03
2017-12-25T01:24:26.043Z,10.50
2017-12-25T01:26:53.936Z,10.70
2017-12-25T01:29:21.792Z,10.10
2017-12-25T01:31:49.698Z,8.80
2017-12-25T01:34:17.563Z,9.97
2017-12-25T01:36:45.415Z,7.93
2017-12-25T01:39:13.288Z,8.80
2017-12-25T01:41:41.184Z,8.43
2017-12-25T01:44:09.027Z,9.40
2017-12-25T01:46:36.923Z,8.73
2017-12-25T01:49:04.800Z,8.50
2017-12-25T01:51:32.657Z,8.93
2017-12-25T01:54:01.530Z,8.97
2017-12-25T01:56:35.698Z,7.63
2017-12-25T01:59:03.590Z,10.27
2017-12-25T02:01:31.444Z,8.53
2017-12-25T02:04:01.308Z,7.87
2017-12-25T02:06:35.311Z,8.60
2017-12-25T02:09:03.239Z,5.63
2017-12-25T02:11:31.142Z,7.30
2017-12-25T02:13:58.989Z,8.70
2017-12-25T02:16:26.870Z,5.97
2017-12-25T02:18:54.723Z,7.80
2017-12-25T02:21:22.609Z,7.80
2017-12-25T02:23:50.481Z,6.53
2017-12-25T02:26:18.332Z,8.87
2017-12-25T02:28:46.193Z,6.50
2017-12-25T02:31:14.072Z,6.87
2017-12-25T02:33:42.583Z,6.50
2017-12-25T02:36:10.444Z,5.37
2017-12-25T02:38:38.317Z,6.17
2017-12-25T02:41:06.175Z,8.60
2017-12-25T02:43:34.036Z,5.37
2017-12-25T02:46:01.911Z,4.83
2017-12-25T02:48:29.774Z,5.87
2017-12-25T02:50:57.614Z,6.03
2017-12-25T02:53:25.522Z,5.63
2017-12-25T02:55:53.375Z,7.33
2017-12-25T02:58:21.221Z,5.87
2017-12-25T03:00:49.105Z,6.80
2017-12-25T03:03:17.795Z,6.10
2017-12-25T03:05:45.644Z,6.20
2017-12-25T03:08:13.568Z,6.57
2017-12-25T03:10:41.419Z,4.93
2017-12-25T03:13:09.292Z,5.83
2017-12-25T03:15:37.167Z,5.63
2017-12-25T03:18:05.003Z,6.50
2017-12-25T03:20:32.872Z,5.53
2017-12-25T03:23:00.803Z,5.10
2017-12-25T03:25:28.685Z,5.77
2017-12-25T03:27:56.538Z,6.43
2017-12-25T03:30:24.436Z,5.50
2017-12-25T03:32:52.302Z,5.07
2017-12-25T03:35:20.158Z,7.23
2017-12-25T03:37:48.055Z,4.27
2017-12-25T03:40:15.880Z,10.30
2017-12-25T03:42:43.745Z,4.40
2017-12-25T03:45:11.624Z,4.93
2017-12-25T03:47:39.459Z,5.40
2017-12-25T03:50:07.311Z,6.30
2017-12-25T03:52:35.315Z,2.97
2017-12-25T03:55:03.163Z,2.90
2017-12-25T03:57:31.089Z,2.67
2017-12-25T03:59:58.957Z,3.43
2017-12-25T04:02:26.798Z,2.50
2017-12-25T04:04:54.654Z,2.67
2017-12-25T04:07:22.525Z,3.57
2017-12-25T04:09:50.356Z,2.50
2017-12-25T04:12:18.220Z,2.17
2017-12-25T04:14:46.105Z,3.57
2017-12-25T04:17:14.037Z,3.70
2017-12-25T04:19:41.879Z,2.20
2017-12-25T04:22:09.751Z,2.07
2017-12-25T04:24:37.680Z,3.80
2017-12-25T04:27:05.537Z,2.20
2017-12-25T04:29:33.401Z,2.50
2017-12-25T04:32:01.252Z,1.97
2017-12-25T04:34:29.118Z,2.20
2017-12-25T04:36:57.001Z,2.27
2017-12-25T04:39:24.868Z,4.27
2017-12-25T04:41:52.737Z,3.97
2017-12-25T04:44:20.623Z,4.30
2017-12-25T04:46:48.483Z,3.83
2017-12-25T04:49:16.352Z,4.10
2017-12-25T04:51:44.223Z,5.23
2017-12-25T04:54:12.071Z,5.27
2017-12-25T04:56:39.946Z,6.07
2017-12-25T04:59:07.863Z,6.50
2017-12-25T05:01:35.733Z,7.67
2017-12-25T05:04:03.560Z,8.87
2017-12-25T05:06:31.460Z,11.93
2017-12-25T05:08:59.343Z,9.30
2017-12-25T05:11:27.197Z,13.37
2017-12-25T05:13:55.060Z,11.07
2017-12-25T05:16:22.929Z,9.87
2017-12-25T05:18:50.776Z,7.70
2017-12-25T05:21:18.652Z,14.23
2017-12-25T05:23:46.494Z,10.60
2017-12-25T05:26:14.389Z,8.50
2017-12-25T05:28:42.256Z,8.97
2017-12-25T05:31:10.126Z,12.00
2017-12-25T05:33:38.037Z,9.63
2017-12-25T05:36:05.945Z,11.27
2017-12-25T05:38:33.796Z,9.10
2017-12-25T05:41:01.640Z,14.50
2017-12-25T05:43:29.507Z,10.87
2017-12-25T05:45:57.372Z,11.53
2017-12-25T05:48:25.209Z,11.20
2017-12-25T05:50:53.071Z,13.20
2017-12-25T05:53:20.928Z,13.00
2017-12-25T05:55:48.765Z,11.33
2017-12-25T05:58:16.699Z,11.23
2017-12-25T06:00:44.567Z,12.23
2017-12-25T06:03:12.413Z,19.20
2017-12-25T06:05:40.275Z,11.00
2017-12-25T06:08:08.126Z,13.03
2017-12-25T06:10:35.973Z,10.40
2017-12-25T06:13:03.875Z,12.10
2017-12-25T06:15:31.732Z,11.87
2017-12-25T06:17:59.602Z,8.47
2017-12-25T06:20:27.485Z,9.43
2017-12-25T06:22:55.341Z,9.50
2017-12-25T06:25:23.176Z,8.37
2017-12-25T06:27:51.085Z,10.33
2017-12-25T06:30:18.929Z,7.33
2017-12-25T06:32:46.760Z,10.70
2017-12-25T06:35:14.656Z,7.17
2017-12-25T06:37:42.561Z,9.33
2017-12-25T06:40:10.395Z,10.23
2017-12-25T06:42:38.266Z,20.00
2017-12-25T06:45:06.133Z,12.00
2017-12-25T06:47:33.967Z,8.90
2017-12-25T06:50:01.846Z,8.23
2017-12-25T06:52:29.695Z,12.87
2017-12-25T06:54:57.545Z,10.63
2017-12-25T06:57:25.424Z,7.10
2017-12-25T06:59:53.265Z,8.20
2017-12-25T07:02:21.111Z,10.87
2017-12-25T07:04:49.105Z,17.20
2017-12-25T07:07:17.033Z,7.50
2017-12-25T07:09:44.898Z,7.77
2017-12-25T07:12:12.771Z,10.00
2017-12-25T07:14:40.612Z,9.07
2017-12-25T07:17:08.461Z,6.60
2017-12-25T07:19:36.332Z,29.33
2017-12-25T07:22:04.203Z,6.83
2017-12-25T07:24:32.026Z,7.63
2017-12-25T07:26:59.894Z,7.30
2017-12-25T07:29:27.765Z,10.23
2017-12-25T07:31:55.607Z,6.83
2017-12-25T07:34:23.491Z,7.40
2017-12-25T07:36:51.333Z,6.50
2017-12-25T07:39:19.190Z,7.13
2017-12-25T07:41:47.088Z,18.60
2017-12-25T07:44:14.919Z,5.60
2017-12-25T07:46:42.761Z,6.37
2017-12-25T07:49:10.642Z,7.27
2017-12-25T07:51:38.476Z,4.63
2017-12-25T07:54:06.329Z,5.63
2017-12-25T07:56:34.191Z,4.67
2017-12-25T07:59:02.053Z,4.33
2017-12-25T08:01:29.955Z,4.40
2017-12-25T08:03:57.825Z,4.03
2017-12-25T08:06:25.690Z,4.13
2017-12-25T08:08:53.537Z,2.67
2017-12-25T08:11:21.421Z,4.23
2017-12-25T08:13:49.343Z,3.00
2017-12-25T08:16:17.213Z,4.87
2017-12-25T08:18:45.109Z,3.23
2017-12-25T08:21:12.963Z,3.93
2017-12-25T08:23:40.840Z,3.37
2017-12-25T08:26:08.761Z,3.33
2017-12-25T08:28:36.594Z,3.00
2017-12-25T08:31:04.458Z,4.03
2017-12-25T08:33:32.379Z,6.83
2017-12-25T08:36:00.237Z,3.30
2017-12-25T08:38:28.101Z,5.30
2017-12-25T08:40:56.014Z,5.27
2017-12-25T08:43:23.882Z,3.50
2017-12-25T08:45:51.774Z,3.00
2017-12-25T08:48:19.692Z,3.37
2017-12-25T08:50:47.568Z,3.47
2017-12-25T08:53:15.468Z,2.90
2017-12-25T08:55:43.377Z,2.50
2017-12-25T08:58:11.257Z,3.90
2017-12-25T09:00:39.104Z,4.53
2017-12-25T09:03:06.980Z,3.80
2017-12-25T09:05:34.839Z,7.23
2017-12-25T09:08:02.711Z,2.53
2017-12-25T09:10:30.627Z,3.13
2017-12-25T09:12:58.477Z,2.20
2017-12-25T09:15:26.313Z,6.10
2017-12-25T09:17:54.179Z,3.23
2017-12-25T09:20:22.047Z,2.30
2017-12-25T09:22:49.909Z,2.50
2017-12-25T09:25:17.790Z,2.70
2017-12-25T09:27:45.707Z,2.50
2017-12-25T09:30:13.615Z,1.83
2017-12-25T09:32:41.547Z,1.53
2017-12-25T09:35:09.394Z,1.50
2017-12-25T09:37:37.238Z,1.60
2017-12-25T09:40:05.104Z,1.50
2017-12-25T09:42:32.975Z,1.63
2017-12-25T09:45:00.821Z,1.77
2017-12-25T09:47:28.720Z,1.73
2017-12-25T09:49:56.553Z,1.80
2017-12-25T09:52:24.415Z,2.60
2017-12-25T09:54:52.274Z,1.90
2017-12-25T09:57:20.133Z,5.60
2017-12-25T09:59:48.003Z,1.90
2017-12-25T10:02:15.869Z,2.60
2017-12-25T10:04:43.744Z,2.70
2017-12-25T10:07:11.650Z,2.57
2017-12-25T10:09:39.543Z,2.80
2017-12-25T10:12:07.389Z,2.50
2017-12-25T10:14:35.218Z,2.70
2017-12-25T10:17:03.083Z,3.50
2017-12-25T10:19:30.943Z,2.10
2017-12-25T10:21:58.771Z,2.37
2017-12-25T10:24:26.641Z,2.43
2017-12-25T10:26:54.518Z,2.87
2017-12-25T10:29:22.360Z,2.10
2017-12-25T10:31:50.249Z,2.67
2017-12-25T10:34:18.132Z,2.87
2017-12-25T10:36:46.029Z,2.67
2017-12-25T10:39:13.928Z,4.73
2017-12-25T10:41:41.793Z,2.97
2017-12-25T10:44:09.661Z,2.60
2017-12-25T10:46:37.536Z,3.33
2017-12-25T10:49:05.388Z,2.90
2017-12-25T10:51:33.227Z,2.57
2017-12-25T10:54:01.176Z,8.00
2017-12-25T10:56:29.032Z,6.93
2017-12-25T10:58:56.948Z,4.23
2017-12-25T11:01:24.840Z,4.07
2017-12-25T11:03:52.681Z,4.20
2017-12-25T11:06:20.554Z,2.87
2017-12-25T11:08:48.425Z,3.63
2017-12-25T11:11:16.259Z,3.30
2017-12-25T11:13:44.105Z,4.77
2017-12-25T11:16:11.989Z,3.67
2017-12-25T11:18:40.012Z,4.33
2017-12-25T11:21:07.947Z,3.33
2017-12-25T11:23:35.827Z,3.10
2017-12-25T11:26:03.719Z,3.30
2017-12-25T11:28:31.571Z,3.83
2017-12-25T11:30:59.508Z,4.83
2017-12-25T11:33:27.423Z,4.77
2017-12-25T11:35:55.325Z,8.03
2017-12-25T11:38:23.242Z,3.77
2017-12-25T11:40:51.219Z,4.50
2017-12-25T11:43:19.120Z,4.10
2017-12-25T11:45:47.013Z,4.67
2017-12-25T11:48:14.968Z,4.03
2017-12-25T11:50:42.829Z,4.13
2017-12-25T11:53:10.704Z,3.77
2017-12-25T11:55:38.535Z,4.37
2017-12-25T11:58:06.409Z,4.17
2017-12-25T12:00:34.344Z,5.23
2017-12-25T12:03:02.210Z,2.90
2017-12-25T12:05:30.342Z,3.00
2017-12-25T12:07:58.222Z,2.93
2017-12-25T12:10:26.068Z,3.43
2017-12-25T12:12:53.919Z,6.27
2017-12-25T12:15:21.833Z,2.20
2017-12-25T12:17:49.694Z,2.13
2017-12-25T12:20:17.572Z,1.70
2017-12-25T12:22:45.484Z,2.13
2017-12-25T12:25:13.336Z,1.30
2017-12-25T12:27:41.287Z,1.67
2017-12-25T12:30:09.188Z,2.77
2017-12-25T12:32:37.032Z,2.10
2017-12-25T12:35:04.897Z,2.23
2017-12-25T12:37:32.861Z,1.17
2017-12-25T12:40:00.728Z,1.73
2017-12-25T12:42:28.558Z,2.17
2017-12-25T12:44:56.430Z,1.90
2017-12-25T12:47:24.307Z,1.90
2017-12-25T12:49:52.172Z,2.50
2017-12-25T12:52:20.046Z,2.53
2017-12-25T12:54:47.899Z,3.57
2017-12-25T12:57:15.771Z,3.33
2017-12-25T12:59:43.647Z,2.97
2017-12-25T13:02:11.502Z,3.63
2017-12-25T13:04:39.407Z,3.00
2017-12-25T13:07:13.033Z,2.73
2017-12-25T13:09:41.001Z,2.77
2017-12-25T13:12:15.752Z,3.90
2017-12-25T13:14:43.684Z,5.23
2017-12-25T13:17:11.526Z,3.97
2017-12-25T13:19:40.891Z,3.50
2017-12-25T13:22:08.906Z,4.77
2017-12-25T13:24:36.770Z,4.03
2017-12-25T13:27:04.651Z,4.23
2017-12-25T13:29:34.086Z,3.57
2017-12-25T13:32:01.966Z,5.47
2017-12-25T13:34:29.861Z,2.47
2017-12-25T13:36:57.721Z,4.00
2017-12-25T13:39:25.587Z,2.67
2017-12-25T13:41:56.117Z,4.20
2017-12-25T13:44:24.065Z,3.20
2017-12-25T13:46:51.913Z,3.30
2017-12-25T13:49:21.505Z,5.10
2017-12-25T13:51:49.355Z,3.13
2017-12-25T13:54:17.289Z,3.53
2017-12-25T13:56:45.170Z,3.80
2017-12-25T13:59:13.039Z,2.80
2017-12-25T14:01:40.896Z,2.77
2017-12-25T14:04:09.730Z,2.90
2017-12-25T14:06:37.575Z,3.27
2017-12-25T14:09:05.444Z,2.10
2017-12-25T14:11:33.316Z,3.03
2017-12-25T14:14:01.249Z,4.10
2017-12-25T14:16:29.168Z,2.57
2017-12-25T14:18:57.667Z,2.30
2017-12-25T14:21:25.787Z,2.47
2017-12-25T14:23:53.674Z,4.00
2017-12-25T14:26:21.574Z,4.03
2017-12-25T14:28:49.423Z,4.40
2017-12-25T14:31:17.278Z,3.47
2017-12-25T14:33:45.172Z,2.27
2017-12-25T14:36:13.040Z,2.33
2017-12-25T14:38:40.893Z,2.03
2017-12-25T14:41:08.809Z,2.30
2017-12-25T14:43:36.679Z,2.83
2017-12-25T14:46:04.558Z,2.20
2017-12-25T14:48:32.435Z,3.80
2017-12-25T14:51:00.352Z,1.70
2017-12-25T14:53:28.223Z,3.67
2017-12-25T14:55:56.115Z,2.30
2017-12-25T14:58:23.988Z,2.20
2017-12-25T15:00:51.919Z,8.03
2017-12-25T15:03:19.824Z,5.30
2017-12-25T15:05:47.732Z,3.00
2017-12-25T15:08:15.621Z,1.37
2017-12-25T15:10:43.515Z,3.57
2017-12-25T15:13:11.380Z,1.50
2017-12-25T15:15:39.248Z,2.50
2017-12-25T15:18:07.996Z,2.43
2017-12-25T15:20:35.874Z,1.33
2017-12-25T15:23:03.780Z,1.80
2017-12-25T15:25:31.673Z,14.67
2017-12-25T15:27:59.536Z,6.40
2017-12-25T15:30:27.484Z,5.43
2017-12-25T15:32:55.356Z,2.43
2017-12-25T15:35:23.204Z,2.03
2017-12-25T15:37:51.071Z,2.53
2017-12-25T15:40:18.972Z,1.40
2017-12-25T15:42:46.943Z,1.50
2017-12-25T15:45:14.835Z,32.33
2017-12-25T15:47:42.735Z,2.27
2017-12-25T15:50:10.642Z,6.70
2017-12-25T15:52:38.500Z,3.50
2017-12-25T15:55:06.394Z,3.80
2017-12-25T15:57:36.003Z,4.70
2017-12-25T16:00:04.878Z,3.00
2017-12-25T16:02:32.890Z,1.97
2017-12-25T16:05:00.834Z,2.70
2017-12-25T16:07:28.695Z,2.70
2017-12-25T16:09:56.567Z,4.30
2017-12-25T16:12:24.424Z,10.17
2017-12-25T16:14:52.279Z,4.23
2017-12-25T16:17:20.155Z,5.83
2017-12-25T16:19:48.029Z,6.20
2017-12-25T16:22:15.929Z,3.57
2017-12-25T16:24:43.802Z,4.13
2017-12-25T16:27:11.663Z,3.33
2017-12-25T16:29:39.509Z,4.17
2017-12-25T16:32:07.393Z,3.90
2017-12-25T16:34:35.293Z,3.33
2017-12-25T16:37:03.149Z,3.03
2017-12-25T16:39:31.038Z,5.70
2017-12-25T16:41:58.888Z,2.47
2017-12-25T16:44:26.809Z,6.10
2017-12-25T16:46:54.725Z,4.10
2017-12-25T16:49:22.601Z,5.23
2017-12-25T16:51:50.452Z,5.10
2017-12-25T16:54:18.384Z,10.33
2017-12-25T16:56:46.245Z,2.87
2017-12-25T16:59:14.273Z,3.27
2017-12-25T17:01:42.258Z,2.23
2017-12-25T17:04:10.172Z,5.70
2017-12-25T17:06:39.088Z,2.60
2017-12-25T17:09:07.038Z,3.47
2017-12-25T17:11:35.020Z,7.60
2017-12-25T17:14:02.898Z,2.63
2017-12-25T17:16:33.888Z,3.33
2017-12-25T17:19:01.746Z,2.93
2017-12-25T17:21:29.603Z,1.93
2017-12-25T17:23:57.480Z,2.40
2017-12-25T17:26:25.405Z,2.40
2017-12-25T17:28:54.326Z,3.47
2017-12-25T17:31:22.201Z,3.67
2017-12-25T17:33:50.053Z,2.10
2017-12-25T17:36:17.958Z,5.30
2017-12-25T17:38:45.885Z,3.00
2017-12-25T17:41:13.766Z,2.67
2017-12-25T17:43:41.624Z,2.40
2017-12-25T17:46:09.597Z,2.80
2017-12-25T17:48:37.605Z,1.63
2017-12-25T17:51:05.520Z,1.70
2017-12-25T17:53:33.450Z,1.67
2017-12-25T17:56:01.522Z,2.93
2017-12-25T17:58:29.373Z,2.50
2017-12-25T18:00:57.506Z,2.10
2017-12-25T18:03:25.388Z,2.47
2017-12-25T18:05:53.228Z,3.60
2017-12-25T18:08:21.096Z,3.87
2017-12-25T18:10:49.033Z,3.00
2017-12-25T18:13:16.875Z,9.07
2017-12-25T18:15:44.781Z,2.90
2017-12-25T18:18:12.786Z,3.50
2017-12-25T18:20:40.619Z,3.23
2017-12-25T18:23:08.505Z,3.00
2017-12-25T18:25:36.613Z,5.03
2017-12-25T18:28:04.476Z,2.70
2017-12-25T18:30:32.380Z,2.40
2017-12-25T18:33:01.148Z,2.50
2017-12-25T18:35:29.093Z,2.73
2017-12-25T18:37:56.992Z,3.30
2017-12-25T18:40:24.917Z,2.33
2017-12-25T18:42:52.792Z,3.10
2017-12-25T18:45:20.789Z,2.47
2017-12-25T18:47:48.684Z,5.33
2017-12-25T18:50:16.552Z,3.07
2017-12-25T18:52:44.425Z,2.23
2017-12-25T18:55:12.331Z,6.73
2017-12-25T18:57:40.246Z,2.80
2017-12-25T19:00:08.150Z,5.67
2017-12-25T19:02:36.047Z,8.73
2017-12-25T19:05:03.919Z,3.03
2017-12-25T19:07:31.809Z,3.87
2017-12-25T19:09:59.713Z,3.87
2017-12-25T19:12:27.595Z,8.50
2017-12-25T19:14:55.484Z,5.40
2017-12-25T19:17:23.353Z,3.60
2017-12-25T19:19:51.231Z,5.67
2017-12-25T19:22:19.188Z,3.40
2017-12-25T19:24:47.054Z,10.20
2017-12-25T19:27:14.892Z,3.23
2017-12-25T19:29:42.784Z,8.97
2017-12-25T19:32:10.655Z,4.07
2017-12-25T19:34:38.520Z,4.37
2017-12-25T19:37:06.420Z,7.63
2017-12-25T19:39:34.279Z,4.57
2017-12-25T19:42:02.791Z,4.50
2017-12-25T19:44:30.746Z,4.50
2017-12-25T19:46:58.628Z,4.20
2017-12-25T19:49:26.557Z,4.93
2017-12-25T19:51:54.484Z,3.87
2017-12-25T19:54:22.351Z,7.87
2017-12-25T19:56:50.214Z,5.97
2017-12-25T19:59:18.105Z,4.33
2017-12-25T20:01:45.963Z,5.37
2017-12-25T20:04:13.873Z,5.57
2017-12-25T20:06:41.846Z,3.57
2017-12-25T20:09:09.687Z,4.47
2017-12-25T20:11:37.548Z,7.33
2017-12-25T20:14:05.437Z,4.13
2017-12-25T20:16:33.281Z,3.93
2017-12-25T20:19:01.145Z,4.07
2017-12-25T20:21:29.064Z,5.63
2017-12-25T20:23:56.920Z,5.43
2017-12-25T20:26:24.997Z,4.23
2017-12-25T20:28:53.000Z,5.40
2017-12-25T20:31:20.838Z,5.60
2017-12-25T20:33:48.729Z,4.43
2017-12-25T20:36:16.623Z,4.40
2017-12-25T20:38:44.620Z,10.00
2017-12-25T20:41:12.465Z,6.40
2017-12-25T20:43:40.340Z,7.57
2017-12-25T20:46:08.203Z,6.30
2017-12-25T20:48:36.068Z,6.20
2017-12-25T20:51:04.040Z,5.50
2017-12-25T20:53:31.942Z,5.10
2017-12-25T20:55:59.822Z,5.00
2017-12-25T20:58:27.708Z,5.10
2017-12-25T21:00:55.595Z,5.37
2017-12-25T21:03:23.506Z,5.60
2017-12-25T21:05:51.396Z,5.13
2017-12-25T21:08:19.263Z,7.53
2017-12-25T21:10:47.111Z,4.73
2017-12-25T21:13:15.023Z,5.50
2017-12-25T21:15:42.900Z,5.30
2017-12-25T21:18:10.811Z,6.60
2017-12-25T21:20:38.732Z,6.60
2017-12-25T21:23:06.637Z,6.43
2017-12-25T21:25:34.490Z,5.80
2017-12-25T21:28:02.390Z,7.53
2017-12-25T21:30:30.252Z,5.00
2017-12-25T21:32:58.146Z,7.70
2017-12-25T21:35:26.097Z,6.47
2017-12-25T21:37:54.020Z,6.40
2017-12-25T21:40:22.011Z,6.67
2017-12-25T21:42:49.930Z,5.83
2017-12-25T21:45:17.840Z,6.43
2017-12-25T21:47:45.728Z,5.30
2017-12-25T21:50:13.604Z,7.00
2017-12-25T21:52:41.510Z,7.20
2017-12-25T21:55:09.375Z,7.93
2017-12-25T21:57:37.274Z,7.77
2017-12-25T22:00:05.188Z,9.07
2017-12-25T22:02:33.070Z,8.87
2017-12-25T22:05:00.951Z,7.73
2017-12-25T22:07:28.852Z,9.80
2017-12-25T22:09:56.715Z,9.20
2017-12-25T22:12:24.597Z,13.63
2017-12-25T22:14:52.452Z,10.97
2017-12-25T22:17:20.354Z,9.57
2017-12-25T22:19:48.247Z,11.83
2017-12-25T22:22:16.112Z,18.80
2017-12-25T22:24:43.998Z,12.43
2017-12-25T22:27:11.888Z,9.73
2017-12-25T22:29:39.760Z,9.07
2017-12-25T22:32:07.632Z,10.00
2017-12-25T22:34:35.627Z,11.57
2017-12-25T22:37:03.566Z,12.40
2017-12-25T22:39:31.417Z,12.57
2017-12-25T22:41:59.350Z,11.97
2017-12-25T22:44:27.221Z,12.80
2017-12-25T22:46:55.132Z,12.10
2017-12-25T22:49:23.030Z,16.03
2017-12-25T22:51:50.969Z,14.97
